»·PEaware :: N515ZT KBFL-KMHV

N515ZT :: KBFL-KMHV

FLIGHT INFORMATION

Flight Status: Arrived
Operator: Privately registered:
United States
More flights under this callsign
Pilot: Marty P. (27464)
Aircraft: BEECH AIRCRAFT BARON
(BE58)
More flights by this aircraft type
Origin: KBFL Meadows
United States
Destination: KMHV Mojave
United States
More flights between these airports :: More routes between these airports
Route: +KBFL KMHV
File this flight plan on PilotEdge
Remarks: Cat 6
Altitude:
(Current/Filed)
5,500ft
Speed:
(Current/Filed)
200kts
Departed: 13-Jan-20 06:50 PM
Arrived: 13-Jan-20 07:24 PM
Distance/Time
Traveled:
50nm/0:34
Distance/Time
To Go:
Arrived

Flight Plot

Page will automatically refresh every two minutes.


Map Options




Map Legend


Flown Route
Filed Route
Departure Airport
Arrival Airport
Navaid (VOR, NDB)
Fix

Horizontal Profiles

Position Reports

Time Latitude Longitude Heading Altitude Ground
Speed
13-Jan-20 18:33 35.435714 -119.052043 180 510ft 0kts
13-Jan-20 18:34 35.435714 -119.052043 180 510ft 0kts
13-Jan-20 18:35 35.435714 -119.052043 180 510ft 0kts
13-Jan-20 18:36 35.435714 -119.052043 180 510ft 0kts
13-Jan-20 18:37 35.435714 -119.052043 180 510ft 0kts
13-Jan-20 18:38 35.435714 -119.052043 180 510ft 0kts
13-Jan-20 18:39 35.435506 -119.052218 254 510ft 5kts
13-Jan-20 18:40 35.435211 -119.053736 223 510ft 9kts
13-Jan-20 18:41 35.433567 -119.053637 135 510ft 14kts
13-Jan-20 18:42 35.431872 -119.051596 135 510ft 15kts
13-Jan-20 18:43 35.430098 -119.049439 135 510ft 16kts
13-Jan-20 18:44 35.428341 -119.047319 134 510ft 16kts
13-Jan-20 18:45 35.426593 -119.045208 135 510ft 16kts
13-Jan-20 18:46 35.425750 -119.044725 222 510ft 0kts
13-Jan-20 18:47 35.425750 -119.044725 222 510ft 0kts
13-Jan-20 18:48 35.425522 -119.045698 276 510ft 16kts
13-Jan-20 18:49 35.433700 -119.056716 311 688ft 123kts
13-Jan-20 18:50 35.449266 -119.078748 311 1874ft 125kts
13-Jan-20 18:51 35.465692 -119.096989 7 2961ft 125kts
13-Jan-20 18:52 35.471874 -119.072596 129 4002ft 139kts
13-Jan-20 18:53 35.455704 -119.050448 130 4902ft 141kts
13-Jan-20 18:54 35.438531 -119.026944 130 5547ft 158kts
13-Jan-20 18:55 35.417881 -118.998408 130 5688ft 184kts
13-Jan-20 18:56 35.397650 -118.969042 117 6422ft 168kts
13-Jan-20 18:57 35.384617 -118.937205 113 7281ft 157kts
13-Jan-20 18:58 35.371399 -118.904721 114 7578ft 182kts
13-Jan-20 18:59 35.356621 -118.868736 114 7579ft 197kts
13-Jan-20 19:00 35.341040 -118.830772 115 7511ft 204kts
13-Jan-20 19:01 35.324462 -118.790414 115 7480ft 206kts
13-Jan-20 19:02 35.307745 -118.749766 115 7482ft 206kts
13-Jan-20 19:03 35.290456 -118.707780 115 7479ft 206kts
13-Jan-20 19:04 35.275550 -118.671624 115 7472ft 206kts
13-Jan-20 19:05 35.260937 -118.636215 115 7465ft 206kts
13-Jan-20 19:06 35.244150 -118.595560 115 7457ft 207kts
13-Jan-20 19:07 35.227091 -118.554328 115 7702ft 197kts
13-Jan-20 19:08 35.210492 -118.514264 115 7581ft 208kts
13-Jan-20 19:09 35.194344 -118.475343 116 7576ft 208kts
13-Jan-20 19:10 35.177153 -118.433930 116 7590ft 207kts
13-Jan-20 19:11 35.159765 -118.391981 115 7596ft 208kts
13-Jan-20 19:12 35.142261 -118.349994 116 7592ft 208kts
13-Jan-20 19:13 35.126762 -118.312888 116 7269ft 200kts
13-Jan-20 19:14 35.111184 -118.273234 102 6669ft 190kts
13-Jan-20 19:15 35.105073 -118.237823 98 5603ft 148kts
13-Jan-20 19:16 35.100072 -118.208475 99 4705ft 144kts
13-Jan-20 19:17 35.096636 -118.168182 91 4214ft 204kts
13-Jan-20 19:18 35.093668 -118.122673 91 3950ft 185kts
13-Jan-20 19:19 35.077121 -118.089700 184 3837ft 152kts
13-Jan-20 19:20 35.060899 -118.103827 249 3516ft 117kts
13-Jan-20 19:21 35.058914 -118.125155 277 3214ft 90kts
13-Jan-20 19:22 35.059192 -118.139759 279 2901ft 72kts
13-Jan-20 19:23 35.059182 -118.148897 269 2795ft 37kts
13-Jan-20 19:24 35.058613 -118.150054 135 2795ft 0kts
13-Jan-20 19:25 35.058613 -118.150054 135 2795ft 0kts
13-Jan-20 19:26 35.057593 -118.151042 270 2795ft 12kts
13-Jan-20 19:27 35.057078 -118.152184 120 2795ft 10kts

Navigation Log

Ident Type
Flight plan parsing failed, navigation log unavailable